Sunday, September 23, 2018, 1:04 AM EDT
Back to Local

KDSV, Dansville Municipal Airport

Location: Dansville, NY, United States Lat: 42.567
Local Time: 1:04 AM EDT ( 5:04 GMT) Lon: -77.717
Time Zone: US/Eastern Elev: 662 ft

Show me the last for .
Show Decoded

2018-09-22 23:54 METAR KDSV 230354Z AUTO 00000KT 10SM CLR 10/08 A3026 RMK AO2 SLP257 T01000083 =
2018-09-22 22:54 METAR KDSV 230254Z AUTO 16004KT 10SM CLR 11/09 A3026 RMK AO2 SLP256 T01060089
                 58001 =
2018-09-22 21:54 METAR KDSV 230154Z AUTO 00000KT 10SM CLR 11/09 A3026 RMK AO2 SLP257 T01060089 =
2018-09-22 20:54 METAR KDSV 230054Z AUTO 00000KT 10SM CLR 11/09 A3027 RMK AO2 SLP260 T01110094 =
2018-09-22 19:54 METAR KDSV 222354Z AUTO 00000KT 10SM CLR 12/10 A3026 RMK AO2 SLP257 T01220100
                 10161 20122 53002 =
2018-09-22 18:54 METAR KDSV 222254Z AUTO 00000KT 10SM CLR 14/09 A3025 RMK AO2 SLP254 T01390094 =
2018-09-22 17:54 METAR KDSV 222154Z AUTO 00000KT 10SM SCT040 16/07 A3025 RMK AO2 SLP253 T01560072
                 =
2018-09-22 16:54 METAR KDSV 222054Z AUTO 34003KT 10SM BKN035 OVC042 16/08 A3025 RMK AO2 SLP253
                 T01560083 56007 =
2018-09-22 15:54 METAR KDSV 221954Z AUTO 00000KT 10SM OVC043 15/07 A3026 RMK AO2 SLP254 T01500072
                 =
2018-09-22 14:54 METAR KDSV 221854Z AUTO 01006KT 10SM OVC035 15/08 A3026 RMK AO2 SLP256 T01500083
                 =
2018-09-22 13:54 METAR KDSV 221754Z AUTO 01008KT 10SM OVC036 15/08 A3028 RMK AO2 SLP260 T01500083
                 10156 20128 58001 =
2018-09-22 12:54 METAR KDSV 221654Z AUTO 34007KT 10SM OVC034 15/09 A3028 RMK AO2 SLP262 T01500089
                 =
2018-09-22 11:54 METAR KDSV 221554Z AUTO 33007KT 10SM FEW029 OVC036 15/08 A3028 RMK AO2 SLP261
                 T01500083 =
2018-09-22 11:41 METAR KDSV 221541Z AUTO 34008KT 10SM BKN029 OVC036 15/08 A3028 RMK AO2 T01500083
                 =
2018-09-22 10:54 METAR KDSV 221454Z AUTO 34008KT 10SM SCT027 OVC036 14/09 A3027 RMK AO2 SLP258
                 T01440089 51008 =
2018-09-22 09:54 METAR KDSV 221354Z AUTO 33011KT 10SM FEW021 SCT028 OVC032 13/09 A3027 RMK AO2
                 SLP256 T01330089 =
2018-09-22 09:50 METAR KDSV 221350Z AUTO 33009KT 10SM SCT023 OVC032 13/09 A3027 RMK AO2 =
2018-09-22 09:30 METAR KDSV 221330Z AUTO 34007KT 10SM BKN023 OVC032 13/09 A3027 RMK AO2 T01330089
                 =
2018-09-22 08:54 METAR KDSV 221254Z AUTO 35008KT 10SM FEW027 OVC036 13/08 A3025 RMK AO2 SLP250
                 T01330083 =
2018-09-22 07:54 METAR KDSV 221154Z AUTO 33009KT 10SM OVC035 13/08 A3025 RMK AO2 SLP249 70030
                 T01280083 10183 20128 51030 =
2018-09-22 06:54 METAR KDSV 221054Z AUTO 28006KT 10SM OVC036 14/07 A3022 RMK AO2 SLP238 T01390067
                 =
2018-09-22 05:54 METAR KDSV 220954Z AUTO 30005KT 10SM SCT035 OVC042 14/07 A3019 RMK AO2 SLP228
                 T01390067 =
2018-09-22 04:54 METAR KDSV 220854Z AUTO 32012KT 10SM OVC036 14/08 A3016 RMK AO2 SLP217 T01440078
                 51035 =
2018-09-22 03:54 METAR KDSV 220754Z AUTO 31008KT 10SM SCT038 BKN046 16/09 A3013 RMK AO2 SLP207
                 T01560089 =
2018-09-22 02:54 METAR KDSV 220654Z AUTO 31009KT 10SM SCT043 BKN055 17/11 A3008 RMK AO2 SLP190
                 T01670106 =
2018-09-22 01:54 METAR KDSV 220554Z AUTO 31005KT 10SM BKN044 OVC060 18/12 A3005 RMK AO2 SLP180
                 60000 T01830117 10239 20183 51043 =

Support USWX by starting your Amazon purchase here.